sensor_id;sensor_type;location;lat;lon;timestamp;P1;durP1;ratioP1;P2;durP2;ratioP2
24585;SDS011;12743;52.262;6.172;2022-10-31T00:01:28;11.87;;;5.00;;
24585;SDS011;12743;52.262;6.172;2022-10-31T00:03:55;9.98;;;4.57;;
24585;SDS011;12743;52.262;6.172;2022-10-31T00:06:21;11.33;;;5.47;;
24585;SDS011;12743;52.262;6.172;2022-10-31T00:08:47;10.70;;;4.43;;
24585;SDS011;12743;52.262;6.172;2022-10-31T00:11:17;10.02;;;4.60;;
24585;SDS011;12743;52.262;6.172;2022-10-31T00:13:43;11.17;;;5.03;;
24585;SDS011;12743;52.262;6.172;2022-10-31T00:16:15;6.97;;;3.80;;
24585;SDS011;12743;52.262;6.172;2022-10-31T00:18:41;10.07;;;3.80;;
24585;SDS011;12743;52.262;6.172;2022-10-31T00:21:07;9.43;;;4.13;;
24585;SDS011;12743;52.262;6.172;2022-10-31T00:23:32;9.27;;;4.30;;
24585;SDS011;12743;52.262;6.172;2022-10-31T00:26:01;13.40;;;4.93;;
24585;SDS011;12743;52.262;6.172;2022-10-31T00:28:28;8.40;;;4.30;;
24585;SDS011;12743;52.262;6.172;2022-10-31T00:30:58;10.95;;;5.07;;
24585;SDS011;12743;52.262;6.172;2022-10-31T00:33:24;10.43;;;4.37;;
24585;SDS011;12743;52.262;6.172;2022-10-31T00:35:50;8.40;;;4.03;;
24585;SDS011;12743;52.262;6.172;2022-10-31T00:38:16;11.47;;;4.10;;
24585;SDS011;12743;52.262;6.172;2022-10-31T00:40:41;11.77;;;4.70;;
24585;SDS011;12743;52.262;6.172;2022-10-31T00:43:06;12.30;;;4.77;;
24585;SDS011;12743;52.262;6.172;2022-10-31T00:45:32;13.40;;;5.00;;
24585;SDS011;12743;52.262;6.172;2022-10-31T00:47:57;11.97;;;5.43;;
24585;SDS011;12743;52.262;6.172;2022-10-31T00:50:22;11.55;;;4.88;;
24585;SDS011;12743;52.262;6.172;2022-10-31T00:52:48;11.53;;;4.00;;
24585;SDS011;12743;52.262;6.172;2022-10-31T00:55:13;11.00;;;5.20;;
24585;SDS011;12743;52.262;6.172;2022-10-31T00:57:39;12.65;;;6.10;;
24585;SDS011;12743;52.262;6.172;2022-10-31T01:00:05;10.97;;;5.07;;
24585;SDS011;12743;52.262;6.172;2022-10-31T01:02:31;10.90;;;5.15;;
24585;SDS011;12743;52.262;6.172;2022-10-31T01:04:56;12.20;;;4.70;;
24585;SDS011;12743;52.262;6.172;2022-10-31T01:07:21;12.43;;;5.23;;
24585;SDS011;12743;52.262;6.172;2022-10-31T01:09:47;9.07;;;4.20;;
24585;SDS011;12743;52.262;6.172;2022-10-31T01:12:12;9.88;;;5.10;;
24585;SDS011;12743;52.262;6.172;2022-10-31T01:14:41;8.10;;;4.07;;
24585;SDS011;12743;52.262;6.172;2022-10-31T01:17:08;12.27;;;4.13;;
24585;SDS011;12743;52.262;6.172;2022-10-31T01:19:33;12.07;;;4.70;;
24585;SDS011;12743;52.262;6.172;2022-10-31T01:21:58;11.63;;;4.87;;
24585;SDS011;12743;52.262;6.172;2022-10-31T01:24:28;9.65;;;4.35;;
24585;SDS011;12743;52.262;6.172;2022-10-31T01:26:53;9.60;;;4.37;;
24585;SDS011;12743;52.262;6.172;2022-10-31T01:29:18;12.93;;;4.97;;
24585;SDS011;12743;52.262;6.172;2022-10-31T01:31:44;11.83;;;4.83;;
24585;SDS011;12743;52.262;6.172;2022-10-31T01:34:13;10.97;;;3.90;;
24585;SDS011;12743;52.262;6.172;2022-10-31T01:36:40;7.55;;;3.85;;
24585;SDS011;12743;52.262;6.172;2022-10-31T01:39:07;10.87;;;4.73;;
24585;SDS011;12743;52.262;6.172;2022-10-31T01:41:38;9.55;;;4.30;;
24585;SDS011;12743;52.262;6.172;2022-10-31T01:46:55;10.25;;;4.75;;
24585;SDS011;12743;52.262;6.172;2022-10-31T01:49:24;10.13;;;4.13;;
24585;SDS011;12743;52.262;6.172;2022-10-31T01:51:55;10.60;;;3.97;;
24585;SDS011;12743;52.262;6.172;2022-10-31T01:54:24;9.23;;;3.42;;
24585;SDS011;12743;52.262;6.172;2022-10-31T01:56:55;12.10;;;4.72;;
24585;SDS011;12743;52.262;6.172;2022-10-31T01:59:22;9.55;;;4.18;;
24585;SDS011;12743;52.262;6.172;2022-10-31T02:01:51;9.02;;;3.72;;
24585;SDS011;12743;52.262;6.172;2022-10-31T02:04:17;6.80;;;3.07;;
24585;SDS011;12743;52.262;6.172;2022-10-31T02:06:49;12.13;;;4.40;;
24585;SDS011;12743;52.262;6.172;2022-10-31T02:09:20;9.43;;;3.63;;
24585;SDS011;12743;52.262;6.172;2022-10-31T02:11:49;12.55;;;4.30;;
24585;SDS011;12743;52.262;6.172;2022-10-31T02:14:17;11.63;;;4.38;;
24585;SDS011;12743;52.262;6.172;2022-10-31T02:16:44;12.43;;;4.03;;
24585;SDS011;12743;52.262;6.172;2022-10-31T02:19:09;7.70;;;3.35;;
24585;SDS011;12743;52.262;6.172;2022-10-31T02:21:42;9.00;;;3.87;;
24585;SDS011;12743;52.262;6.172;2022-10-31T02:27:07;7.93;;;3.70;;
24585;SDS011;12743;52.262;6.172;2022-10-31T02:34:53;11.20;;;4.53;;
24585;SDS011;12743;52.262;6.172;2022-10-31T02:37:40;7.68;;;3.70;;
24585;SDS011;12743;52.262;6.172;2022-10-31T02:40:33;8.90;;;4.45;;
24585;SDS011;12743;52.262;6.172;2022-10-31T02:43:26;7.40;;;3.65;;
24585;SDS011;12743;52.262;6.172;2022-10-31T02:46:02;8.48;;;4.30;;
24585;SDS011;12743;52.262;6.172;2022-10-31T02:48:39;9.60;;;4.53;;
24585;SDS011;12743;52.262;6.172;2022-10-31T02:51:06;9.23;;;3.67;;
24585;SDS011;12743;52.262;6.172;2022-10-31T02:53:35;8.30;;;4.00;;
24585;SDS011;12743;52.262;6.172;2022-10-31T02:58:35;10.13;;;6.00;;
24585;SDS011;12743;52.262;6.172;2022-10-31T03:04:15;11.68;;;5.28;;
24585;SDS011;12743;52.262;6.172;2022-10-31T03:06:57;10.63;;;4.78;;
24585;SDS011;12743;52.262;6.172;2022-10-31T03:09:37;8.55;;;3.88;;
24585;SDS011;12743;52.262;6.172;2022-10-31T03:17:48;9.73;;;4.80;;
24585;SDS011;12743;52.262;6.172;2022-10-31T03:20:22;10.23;;;4.50;;
24585;SDS011;12743;52.262;6.172;2022-10-31T03:22:51;9.45;;;4.32;;
24585;SDS011;12743;52.262;6.172;2022-10-31T03:25:20;8.68;;;4.30;;
24585;SDS011;12743;52.262;6.172;2022-10-31T03:27:45;16.03;;;4.97;;
24585;SDS011;12743;52.262;6.172;2022-10-31T03:30:12;10.95;;;5.55;;
24585;SDS011;12743;52.262;6.172;2022-10-31T03:32:54;11.50;;;5.93;;
24585;SDS011;12743;52.262;6.172;2022-10-31T03:35:23;11.13;;;5.10;;
24585;SDS011;12743;52.262;6.172;2022-10-31T03:37:51;10.23;;;5.10;;
24585;SDS011;12743;52.262;6.172;2022-10-31T03:40:19;11.68;;;5.72;;
24585;SDS011;12743;52.262;6.172;2022-10-31T03:42:50;11.45;;;4.90;;
24585;SDS011;12743;52.262;6.172;2022-10-31T03:45:24;10.85;;;4.80;;
24585;SDS011;12743;52.262;6.172;2022-10-31T03:47:52;10.40;;;4.43;;
24585;SDS011;12743;52.262;6.172;2022-10-31T03:50:19;11.15;;;5.38;;
24585;SDS011;12743;52.262;6.172;2022-10-31T03:53:00;12.07;;;5.85;;
24585;SDS011;12743;52.262;6.172;2022-10-31T03:55:43;11.85;;;5.70;;
24585;SDS011;12743;52.262;6.172;2022-10-31T03:58:21;11.30;;;5.28;;
24585;SDS011;12743;52.262;6.172;2022-10-31T04:00:52;9.97;;;5.20;;
24585;SDS011;12743;52.262;6.172;2022-10-31T04:03:22;11.00;;;6.05;;
24585;SDS011;12743;52.262;6.172;2022-10-31T04:05:55;12.70;;;6.43;;
24585;SDS011;12743;52.262;6.172;2022-10-31T04:08:24;10.13;;;4.82;;
24585;SDS011;12743;52.262;6.172;2022-10-31T04:10:54;9.18;;;4.50;;
24585;SDS011;12743;52.262;6.172;2022-10-31T04:13:28;12.83;;;5.53;;
24585;SDS011;12743;52.262;6.172;2022-10-31T04:16:01;9.65;;;5.07;;
24585;SDS011;12743;52.262;6.172;2022-10-31T04:18:27;9.80;;;4.82;;
24585;SDS011;12743;52.262;6.172;2022-10-31T04:21:00;11.17;;;4.90;;
24585;SDS011;12743;52.262;6.172;2022-10-31T04:23:27;12.15;;;5.78;;
24585;SDS011;12743;52.262;6.172;2022-10-31T04:25:54;10.23;;;5.53;;
24585;SDS011;12743;52.262;6.172;2022-10-31T04:28:19;12.30;;;6.43;;
24585;SDS011;12743;52.262;6.172;2022-10-31T04:30:44;11.20;;;5.43;;
24585;SDS011;12743;52.262;6.172;2022-10-31T04:33:10;13.48;;;7.20;;
24585;SDS011;12743;52.262;6.172;2022-10-31T04:35:36;11.33;;;5.47;;
24585;SDS011;12743;52.262;6.172;2022-10-31T04:38:02;12.63;;;6.23;;
24585;SDS011;12743;52.262;6.172;2022-10-31T04:40:28;11.50;;;5.53;;
24585;SDS011;12743;52.262;6.172;2022-10-31T04:43:13;11.65;;;5.65;;
24585;SDS011;12743;52.262;6.172;2022-10-31T04:45:41;11.40;;;5.45;;
24585;SDS011;12743;52.262;6.172;2022-10-31T04:48:07;11.45;;;5.95;;
24585;SDS011;12743;52.262;6.172;2022-10-31T04:50:34;12.02;;;5.70;;
24585;SDS011;12743;52.262;6.172;2022-10-31T04:53:00;12.10;;;5.93;;
24585;SDS011;12743;52.262;6.172;2022-10-31T04:55:29;12.40;;;6.57;;
24585;SDS011;12743;52.262;6.172;2022-10-31T04:58:17;13.68;;;7.50;;
24585;SDS011;12743;52.262;6.172;2022-10-31T05:00:43;11.53;;;5.67;;
24585;SDS011;12743;52.262;6.172;2022-10-31T05:03:09;12.50;;;6.50;;
24585;SDS011;12743;52.262;6.172;2022-10-31T05:05:34;15.37;;;6.73;;
24585;SDS011;12743;52.262;6.172;2022-10-31T05:08:02;12.65;;;6.00;;
24585;SDS011;12743;52.262;6.172;2022-10-31T05:10:29;10.97;;;5.57;;
24585;SDS011;12743;52.262;6.172;2022-10-31T05:12:59;13.40;;;6.18;;
24585;SDS011;12743;52.262;6.172;2022-10-31T05:15:38;15.40;;;7.85;;
24585;SDS011;12743;52.262;6.172;2022-10-31T05:18:26;15.15;;;7.70;;
24585;SDS011;12743;52.262;6.172;2022-10-31T05:21:12;15.00;;;6.45;;
24585;SDS011;12743;52.262;6.172;2022-10-31T05:23:43;11.83;;;6.00;;
24585;SDS011;12743;52.262;6.172;2022-10-31T05:26:08;12.68;;;6.55;;
24585;SDS011;12743;52.262;6.172;2022-10-31T05:28:34;13.83;;;6.63;;
24585;SDS011;12743;52.262;6.172;2022-10-31T05:31:00;14.63;;;7.22;;
24585;SDS011;12743;52.262;6.172;2022-10-31T05:33:25;17.33;;;9.00;;
24585;SDS011;12743;52.262;6.172;2022-10-31T05:36:09;14.50;;;6.55;;
24585;SDS011;12743;52.262;6.172;2022-10-31T05:38:51;13.00;;;6.32;;
24585;SDS011;12743;52.262;6.172;2022-10-31T05:41:23;16.57;;;6.80;;
24585;SDS011;12743;52.262;6.172;2022-10-31T05:43:49;12.98;;;6.20;;
24585;SDS011;12743;52.262;6.172;2022-10-31T05:46:19;12.23;;;6.25;;
24585;SDS011;12743;52.262;6.172;2022-10-31T05:49:03;11.48;;;6.47;;
24585;SDS011;12743;52.262;6.172;2022-10-31T05:51:46;11.00;;;6.45;;
24585;SDS011;12743;52.262;6.172;2022-10-31T05:54:12;14.40;;;7.83;;
24585;SDS011;12743;52.262;6.172;2022-10-31T05:56:39;12.65;;;7.47;;
24585;SDS011;12743;52.262;6.172;2022-10-31T05:59:04;14.27;;;6.13;;
24585;SDS011;12743;52.262;6.172;2022-10-31T06:01:30;12.35;;;5.85;;
24585;SDS011;12743;52.262;6.172;2022-10-31T06:03:59;12.50;;;7.10;;
24585;SDS011;12743;52.262;6.172;2022-10-31T06:06:24;12.97;;;6.20;;
24585;SDS011;12743;52.262;6.172;2022-10-31T06:08:51;11.65;;;6.20;;
24585;SDS011;12743;52.262;6.172;2022-10-31T06:11:19;11.47;;;6.00;;
24585;SDS011;12743;52.262;6.172;2022-10-31T06:14:03;13.10;;;6.57;;
24585;SDS011;12743;52.262;6.172;2022-10-31T06:16:44;13.38;;;6.93;;
24585;SDS011;12743;52.262;6.172;2022-10-31T06:19:33;14.10;;;6.40;;
24585;SDS011;12743;52.262;6.172;2022-10-31T06:21:58;14.37;;;6.20;;
24585;SDS011;12743;52.262;6.172;2022-10-31T06:24:24;11.87;;;6.60;;
24585;SDS011;12743;52.262;6.172;2022-10-31T06:26:52;13.07;;;6.27;;
24585;SDS011;12743;52.262;6.172;2022-10-31T06:29:17;11.90;;;6.03;;
24585;SDS011;12743;52.262;6.172;2022-10-31T06:32:12;11.93;;;6.70;;
24585;SDS011;12743;52.262;6.172;2022-10-31T06:34:41;14.18;;;5.68;;
24585;SDS011;12743;52.262;6.172;2022-10-31T06:37:08;10.98;;;5.53;;
24585;SDS011;12743;52.262;6.172;2022-10-31T06:39:37;13.40;;;6.82;;
24585;SDS011;12743;52.262;6.172;2022-10-31T06:42:03;13.73;;;7.10;;
24585;SDS011;12743;52.262;6.172;2022-10-31T06:44:29;10.38;;;5.13;;
24585;SDS011;12743;52.262;6.172;2022-10-31T06:46:58;12.25;;;5.97;;
24585;SDS011;12743;52.262;6.172;2022-10-31T06:49:47;10.52;;;5.93;;
24585;SDS011;12743;52.262;6.172;2022-10-31T06:52:15;12.13;;;5.43;;
24585;SDS011;12743;52.262;6.172;2022-10-31T06:54:41;12.10;;;5.93;;
24585;SDS011;12743;52.262;6.172;2022-10-31T06:57:07;11.00;;;5.82;;
24585;SDS011;12743;52.262;6.172;2022-10-31T06:59:32;14.17;;;7.30;;
24585;SDS011;12743;52.262;6.172;2022-10-31T07:02:15;13.10;;;7.10;;
24585;SDS011;12743;52.262;6.172;2022-10-31T07:04:42;15.20;;;8.55;;
24585;SDS011;12743;52.262;6.172;2022-10-31T07:07:09;18.37;;;8.70;;
24585;SDS011;12743;52.262;6.172;2022-10-31T07:09:36;17.85;;;9.50;;
24585;SDS011;12743;52.262;6.172;2022-10-31T07:12:03;24.52;;;10.23;;
24585;SDS011;12743;52.262;6.172;2022-10-31T07:14:30;18.42;;;9.93;;
24585;SDS011;12743;52.262;6.172;2022-10-31T07:16:56;16.70;;;9.83;;
24585;SDS011;12743;52.262;6.172;2022-10-31T07:19:29;16.02;;;8.70;;
24585;SDS011;12743;52.262;6.172;2022-10-31T07:21:56;15.27;;;8.95;;
24585;SDS011;12743;52.262;6.172;2022-10-31T07:24:25;18.00;;;9.53;;
24585;SDS011;12743;52.262;6.172;2022-10-31T07:27:09;16.95;;;8.65;;
24585;SDS011;12743;52.262;6.172;2022-10-31T07:29:34;14.87;;;8.93;;
24585;SDS011;12743;52.262;6.172;2022-10-31T07:31:59;16.33;;;9.43;;
24585;SDS011;12743;52.262;6.172;2022-10-31T07:34:27;18.10;;;8.73;;
24585;SDS011;12743;52.262;6.172;2022-10-31T07:37:12;16.80;;;9.23;;
24585;SDS011;12743;52.262;6.172;2022-10-31T07:39:38;16.40;;;8.93;;
24585;SDS011;12743;52.262;6.172;2022-10-31T07:42:05;17.65;;;9.48;;
24585;SDS011;12743;52.262;6.172;2022-10-31T07:44:32;17.83;;;9.63;;
24585;SDS011;12743;52.262;6.172;2022-10-31T07:47:16;17.70;;;9.57;;
24585;SDS011;12743;52.262;6.172;2022-10-31T07:50:00;21.08;;;9.40;;
24585;SDS011;12743;52.262;6.172;2022-10-31T07:52:44;18.77;;;9.50;;
24585;SDS011;12743;52.262;6.172;2022-10-31T07:55:28;16.95;;;9.10;;
24585;SDS011;12743;52.262;6.172;2022-10-31T07:58:03;19.92;;;10.07;;
24585;SDS011;12743;52.262;6.172;2022-10-31T08:00:39;17.65;;;9.25;;
24585;SDS011;12743;52.262;6.172;2022-10-31T08:03:12;19.90;;;10.98;;
24585;SDS011;12743;52.262;6.172;2022-10-31T08:05:59;17.23;;;9.03;;
24585;SDS011;12743;52.262;6.172;2022-10-31T08:08:43;19.42;;;10.93;;
24585;SDS011;12743;52.262;6.172;2022-10-31T08:11:08;25.13;;;13.60;;
24585;SDS011;12743;52.262;6.172;2022-10-31T08:13:34;30.10;;;13.93;;
24585;SDS011;12743;52.262;6.172;2022-10-31T08:16:00;22.50;;;9.35;;
24585;SDS011;12743;52.262;6.172;2022-10-31T08:18:30;30.00;;;15.17;;
24585;SDS011;12743;52.262;6.172;2022-10-31T08:20:56;35.30;;;15.30;;
24585;SDS011;12743;52.262;6.172;2022-10-31T08:23:22;29.20;;;12.27;;
24585;SDS011;12743;52.262;6.172;2022-10-31T08:25:48;27.38;;;12.55;;
24585;SDS011;12743;52.262;6.172;2022-10-31T08:28:13;25.57;;;12.03;;
24585;SDS011;12743;52.262;6.172;2022-10-31T08:30:41;24.73;;;12.50;;
24585;SDS011;12743;52.262;6.172;2022-10-31T08:33:45;18.05;;;9.88;;
24585;SDS011;12743;52.262;6.172;2022-10-31T08:36:29;25.60;;;12.40;;
24585;SDS011;12743;52.262;6.172;2022-10-31T08:39:11;20.58;;;12.10;;
24585;SDS011;12743;52.262;6.172;2022-10-31T08:41:37;23.97;;;13.30;;
24585;SDS011;12743;52.262;6.172;2022-10-31T08:44:08;35.17;;;16.63;;
24585;SDS011;12743;52.262;6.172;2022-10-31T08:46:34;27.43;;;14.37;;
24585;SDS011;12743;52.262;6.172;2022-10-31T08:49:00;26.67;;;13.32;;
24585;SDS011;12743;52.262;6.172;2022-10-31T08:51:27;25.25;;;13.05;;
24585;SDS011;12743;52.262;6.172;2022-10-31T08:53:54;23.00;;;12.25;;
24585;SDS011;12743;52.262;6.172;2022-10-31T08:56:40;26.63;;;13.77;;
24585;SDS011;12743;52.262;6.172;2022-10-31T08:59:20;26.87;;;14.20;;
24585;SDS011;12743;52.262;6.172;2022-10-31T09:02:07;26.33;;;14.07;;
24585;SDS011;12743;52.262;6.172;2022-10-31T09:04:33;25.13;;;12.88;;
24585;SDS011;12743;52.262;6.172;2022-10-31T09:06:59;24.95;;;13.48;;
24585;SDS011;12743;52.262;6.172;2022-10-31T09:09:25;24.17;;;12.93;;
24585;SDS011;12743;52.262;6.172;2022-10-31T09:11:50;32.40;;;15.63;;
24585;SDS011;12743;52.262;6.172;2022-10-31T09:14:53;32.22;;;15.57;;
24585;SDS011;12743;52.262;6.172;2022-10-31T09:17:24;32.40;;;16.05;;
24585;SDS011;12743;52.262;6.172;2022-10-31T09:20:14;31.27;;;16.88;;
24585;SDS011;12743;52.262;6.172;2022-10-31T09:22:39;26.37;;;14.73;;
24585;SDS011;12743;52.262;6.172;2022-10-31T09:25:06;29.25;;;15.30;;
24585;SDS011;12743;52.262;6.172;2022-10-31T09:27:31;25.17;;;13.40;;
24585;SDS011;12743;52.262;6.172;2022-10-31T09:29:57;25.00;;;14.00;;
24585;SDS011;12743;52.262;6.172;2022-10-31T09:32:23;32.00;;;17.03;;
24585;SDS011;12743;52.262;6.172;2022-10-31T09:34:49;36.85;;;17.10;;
24585;SDS011;12743;52.262;6.172;2022-10-31T09:37:18;34.70;;;17.42;;
24585;SDS011;12743;52.262;6.172;2022-10-31T09:39:43;35.87;;;17.60;;
24585;SDS011;12743;52.262;6.172;2022-10-31T09:42:23;34.42;;;16.23;;
24585;SDS011;12743;52.262;6.172;2022-10-31T09:45:14;31.48;;;16.20;;
24585;SDS011;12743;52.262;6.172;2022-10-31T09:56:28;29.67;;;15.90;;
24585;SDS011;12743;52.262;6.172;2022-10-31T09:58:59;39.92;;;16.60;;
24585;SDS011;12743;52.262;6.172;2022-10-31T10:01:42;37.13;;;16.88;;
24585;SDS011;12743;52.262;6.172;2022-10-31T10:07:06;35.95;;;17.20;;
24585;SDS011;12743;52.262;6.172;2022-10-31T10:09:44;33.17;;;16.45;;
24585;SDS011;12743;52.262;6.172;2022-10-31T10:12:41;32.67;;;15.90;;
24585;SDS011;12743;52.262;6.172;2022-10-31T10:15:37;32.88;;;16.33;;
24585;SDS011;12743;52.262;6.172;2022-10-31T10:21:16;33.85;;;15.05;;
24585;SDS011;12743;52.262;6.172;2022-10-31T10:29:53;22.55;;;10.02;;
24585;SDS011;12743;52.262;6.172;2022-10-31T10:32:27;21.90;;;10.40;;
24585;SDS011;12743;52.262;6.172;2022-10-31T10:34:57;20.73;;;9.48;;
24585;SDS011;12743;52.262;6.172;2022-10-31T10:37:28;20.35;;;8.70;;
24585;SDS011;12743;52.262;6.172;2022-10-31T10:40:07;15.80;;;7.50;;
24585;SDS011;12743;52.262;6.172;2022-10-31T10:42:39;16.05;;;6.80;;
24585;SDS011;12743;52.262;6.172;2022-10-31T10:45:24;13.00;;;5.73;;
24585;SDS011;12743;52.262;6.172;2022-10-31T10:48:14;13.75;;;6.50;;
24585;SDS011;12743;52.262;6.172;2022-10-31T10:50:47;13.27;;;5.57;;
24585;SDS011;12743;52.262;6.172;2022-10-31T10:56:30;14.98;;;4.95;;
24585;SDS011;12743;52.262;6.172;2022-10-31T10:59:04;15.23;;;4.63;;
24585;SDS011;12743;52.262;6.172;2022-10-31T11:01:29;13.88;;;5.20;;
24585;SDS011;12743;52.262;6.172;2022-10-31T11:03:54;12.10;;;5.30;;
24585;SDS011;12743;52.262;6.172;2022-10-31T11:06:21;12.97;;;4.90;;
24585;SDS011;12743;52.262;6.172;2022-10-31T11:08:51;13.82;;;4.80;;
24585;SDS011;12743;52.262;6.172;2022-10-31T11:13:44;13.70;;;5.37;;
24585;SDS011;12743;52.262;6.172;2022-10-31T11:16:13;13.60;;;5.53;;
24585;SDS011;12743;52.262;6.172;2022-10-31T11:18:51;11.20;;;5.20;;
24585;SDS011;12743;52.262;6.172;2022-10-31T11:21:27;11.52;;;5.32;;
24585;SDS011;12743;52.262;6.172;2022-10-31T11:26:29;15.10;;;6.80;;
24585;SDS011;12743;52.262;6.172;2022-10-31T11:28:58;14.43;;;6.93;;
24585;SDS011;12743;52.262;6.172;2022-10-31T11:31:24;15.90;;;7.57;;
24585;SDS011;12743;52.262;6.172;2022-10-31T11:33:54;14.07;;;6.93;;
24585;SDS011;12743;52.262;6.172;2022-10-31T11:36:24;15.20;;;6.75;;
24585;SDS011;12743;52.262;6.172;2022-10-31T11:38:52;14.27;;;6.32;;
24585;SDS011;12743;52.262;6.172;2022-10-31T11:41:40;16.45;;;7.43;;
24585;SDS011;12743;52.262;6.172;2022-10-31T11:44:21;20.15;;;8.77;;
24585;SDS011;12743;52.262;6.172;2022-10-31T11:46:51;16.13;;;7.63;;
24585;SDS011;12743;52.262;6.172;2022-10-31T11:49:20;17.55;;;8.27;;
24585;SDS011;12743;52.262;6.172;2022-10-31T11:51:52;19.08;;;9.15;;
24585;SDS011;12743;52.262;6.172;2022-10-31T11:54:22;20.92;;;11.02;;
24585;SDS011;12743;52.262;6.172;2022-10-31T11:56:54;21.30;;;9.85;;
24585;SDS011;12743;52.262;6.172;2022-10-31T12:01:52;26.17;;;12.10;;
24585;SDS011;12743;52.262;6.172;2022-10-31T12:04:19;27.90;;;12.52;;
24585;SDS011;12743;52.262;6.172;2022-10-31T12:06:54;23.57;;;11.03;;
24585;SDS011;12743;52.262;6.172;2022-10-31T12:09:23;22.42;;;11.60;;
24585;SDS011;12743;52.262;6.172;2022-10-31T12:14:38;25.60;;;11.73;;
24585;SDS011;12743;52.262;6.172;2022-10-31T12:17:27;25.25;;;11.52;;
24585;SDS011;12743;52.262;6.172;2022-10-31T12:20:21;24.73;;;11.27;;
24585;SDS011;12743;52.262;6.172;2022-10-31T12:28:37;24.98;;;11.57;;
24585;SDS011;12743;52.262;6.172;2022-10-31T12:31:32;23.55;;;11.35;;
24585;SDS011;12743;52.262;6.172;2022-10-31T12:34:12;21.90;;;10.95;;
24585;SDS011;12743;52.262;6.172;2022-10-31T12:39:43;23.50;;;11.33;;
24585;SDS011;12743;52.262;6.172;2022-10-31T12:45:29;25.42;;;11.40;;
24585;SDS011;12743;52.262;6.172;2022-10-31T12:48:14;24.20;;;11.25;;
24585;SDS011;12743;52.262;6.172;2022-10-31T12:51:03;27.20;;;12.93;;
24585;SDS011;12743;52.262;6.172;2022-10-31T12:56:45;25.10;;;12.35;;
24585;SDS011;12743;52.262;6.172;2022-10-31T12:59:24;23.85;;;11.85;;
24585;SDS011;12743;52.262;6.172;2022-10-31T13:02:00;30.17;;;12.15;;
24585;SDS011;12743;52.262;6.172;2022-10-31T13:04:42;22.52;;;11.40;;
24585;SDS011;12743;52.262;6.172;2022-10-31T13:07:29;28.73;;;12.00;;
24585;SDS011;12743;52.262;6.172;2022-10-31T13:12:54;21.80;;;10.73;;
24585;SDS011;12743;52.262;6.172;2022-10-31T13:15:28;25.45;;;11.27;;
24585;SDS011;12743;52.262;6.172;2022-10-31T13:18:01;27.15;;;11.07;;
24585;SDS011;12743;52.262;6.172;2022-10-31T13:20:41;25.90;;;12.10;;
24585;SDS011;12743;52.262;6.172;2022-10-31T13:23:26;23.40;;;10.93;;
24585;SDS011;12743;52.262;6.172;2022-10-31T13:25:54;24.20;;;11.07;;
24585;SDS011;12743;52.262;6.172;2022-10-31T13:28:26;24.80;;;10.80;;
24585;SDS011;12743;52.262;6.172;2022-10-31T13:30:58;26.00;;;11.55;;
24585;SDS011;12743;52.262;6.172;2022-10-31T13:33:32;26.40;;;10.37;;
24585;SDS011;12743;52.262;6.172;2022-10-31T13:44:04;22.92;;;9.55;;
24585;SDS011;12743;52.262;6.172;2022-10-31T13:46:40;20.10;;;9.98;;
24585;SDS011;12743;52.262;6.172;2022-10-31T13:49:52;20.40;;;9.25;;
24585;SDS011;12743;52.262;6.172;2022-10-31T13:57:06;21.17;;;10.23;;
24585;SDS011;12743;52.262;6.172;2022-10-31T13:59:37;20.63;;;9.85;;
24585;SDS011;12743;52.262;6.172;2022-10-31T14:02:12;20.75;;;10.15;;
24585;SDS011;12743;52.262;6.172;2022-10-31T14:04:47;24.57;;;9.73;;
24585;SDS011;12743;52.262;6.172;2022-10-31T14:07:16;24.02;;;9.93;;
24585;SDS011;12743;52.262;6.172;2022-10-31T14:12:29;21.00;;;8.45;;
24585;SDS011;12743;52.262;6.172;2022-10-31T14:14:59;23.27;;;10.55;;
24585;SDS011;12743;52.262;6.172;2022-10-31T14:17:45;19.87;;;9.60;;
24585;SDS011;12743;52.262;6.172;2022-10-31T14:22:37;25.73;;;10.43;;
24585;SDS011;12743;52.262;6.172;2022-10-31T14:25:27;24.45;;;10.52;;
24585;SDS011;12743;52.262;6.172;2022-10-31T14:27:55;27.20;;;11.40;;
24585;SDS011;12743;52.262;6.172;2022-10-31T14:30:22;26.45;;;10.98;;
24585;SDS011;12743;52.262;6.172;2022-10-31T14:32:59;23.77;;;10.23;;
24585;SDS011;12743;52.262;6.172;2022-10-31T14:35:29;26.33;;;10.95;;
24585;SDS011;12743;52.262;6.172;2022-10-31T14:38:34;26.05;;;11.85;;
24585;SDS011;12743;52.262;6.172;2022-10-31T14:41:22;25.23;;;10.95;;
24585;SDS011;12743;52.262;6.172;2022-10-31T14:49:56;28.63;;;12.15;;
24585;SDS011;12743;52.262;6.172;2022-10-31T14:52:48;26.88;;;11.93;;
24585;SDS011;12743;52.262;6.172;2022-10-31T14:55:16;25.45;;;12.63;;
24585;SDS011;12743;52.262;6.172;2022-10-31T14:58:05;26.88;;;12.32;;
24585;SDS011;12743;52.262;6.172;2022-10-31T15:00:31;26.57;;;11.80;;
24585;SDS011;12743;52.262;6.172;2022-10-31T15:05:28;28.10;;;12.50;;
24585;SDS011;12743;52.262;6.172;2022-10-31T15:07:55;27.17;;;11.63;;
24585;SDS011;12743;52.262;6.172;2022-10-31T15:10:23;25.35;;;12.00;;
24585;SDS011;12743;52.262;6.172;2022-10-31T15:12:52;28.83;;;12.70;;
24585;SDS011;12743;52.262;6.172;2022-10-31T15:15:22;28.52;;;12.20;;
24585;SDS011;12743;52.262;6.172;2022-10-31T15:18:00;28.17;;;13.70;;
24585;SDS011;12743;52.262;6.172;2022-10-31T15:20:29;32.28;;;13.75;;
24585;SDS011;12743;52.262;6.172;2022-10-31T15:23:09;31.13;;;14.80;;
24585;SDS011;12743;52.262;6.172;2022-10-31T15:25:39;32.67;;;14.63;;
24585;SDS011;12743;52.262;6.172;2022-10-31T15:28:13;32.70;;;14.27;;
24585;SDS011;12743;52.262;6.172;2022-10-31T15:30:39;30.63;;;14.63;;
24585;SDS011;12743;52.262;6.172;2022-10-31T15:33:28;30.77;;;14.55;;
24585;SDS011;12743;52.262;6.172;2022-10-31T15:35:55;26.70;;;12.70;;
24585;SDS011;12743;52.262;6.172;2022-10-31T15:38:25;28.63;;;14.23;;
24585;SDS011;12743;52.262;6.172;2022-10-31T15:40:59;34.63;;;15.97;;
24585;SDS011;12743;52.262;6.172;2022-10-31T15:43:29;31.80;;;15.45;;
24585;SDS011;12743;52.262;6.172;2022-10-31T15:46:03;30.65;;;15.65;;
24585;SDS011;12743;52.262;6.172;2022-10-31T15:48:31;31.70;;;17.33;;
24585;SDS011;12743;52.262;6.172;2022-10-31T15:50:59;35.10;;;16.52;;
24585;SDS011;12743;52.262;6.172;2022-10-31T15:56:09;30.40;;;15.65;;
24585;SDS011;12743;52.262;6.172;2022-10-31T15:58:42;32.75;;;17.10;;
24585;SDS011;12743;52.262;6.172;2022-10-31T16:01:20;33.97;;;16.97;;
24585;SDS011;12743;52.262;6.172;2022-10-31T16:06:33;37.08;;;17.17;;
24585;SDS011;12743;52.262;6.172;2022-10-31T16:08:59;32.60;;;17.70;;
24585;SDS011;12743;52.262;6.172;2022-10-31T16:14:06;36.63;;;17.58;;
24585;SDS011;12743;52.262;6.172;2022-10-31T16:16:33;34.85;;;17.70;;
24585;SDS011;12743;52.262;6.172;2022-10-31T16:19:05;36.13;;;17.88;;
24585;SDS011;12743;52.262;6.172;2022-10-31T16:21:37;45.28;;;22.98;;
24585;SDS011;12743;52.262;6.172;2022-10-31T16:24:15;36.23;;;17.30;;
24585;SDS011;12743;52.262;6.172;2022-10-31T16:26:47;39.00;;;18.85;;
24585;SDS011;12743;52.262;6.172;2022-10-31T16:29:27;33.83;;;17.27;;
24585;SDS011;12743;52.262;6.172;2022-10-31T16:31:59;34.10;;;17.02;;
24585;SDS011;12743;52.262;6.172;2022-10-31T16:34:24;33.90;;;17.30;;
24585;SDS011;12743;52.262;6.172;2022-10-31T16:36:50;39.83;;;19.20;;
24585;SDS011;12743;52.262;6.172;2022-10-31T16:39:16;30.97;;;17.57;;
24585;SDS011;12743;52.262;6.172;2022-10-31T16:41:50;37.97;;;17.77;;
24585;SDS011;12743;52.262;6.172;2022-10-31T16:44:18;36.80;;;18.70;;
24585;SDS011;12743;52.262;6.172;2022-10-31T16:46:48;37.00;;;17.63;;
24585;SDS011;12743;52.262;6.172;2022-10-31T16:49:24;32.40;;;16.25;;